Terminal Aerodrome Forecast
Issued by NWS Caribou, ME

Home | Current Version | Previous Version | Text Only | Print | Product List | Glossary On
Versions: 1 2 3 4 5 6 7 8 9 10 11 12 13 14 15 16 17 18 19
000
FTUS41 KCAR 010521
TAFCAR
TAF
KCAR 010521Z 0106/0206 VRB02KT P6SM BKN250
     FM011800 VRB03KT P6SM SCT100 OVC180=

USA.gov is the U.S. government's official web portal to all federal, state and local government web resources and services.